Main page
Satellite images 15-day forecastsClimateMarine weather Cyclones Lightning AirportsFAQ Newsletter About
Weather : Europe Africa North America South America Asia Australia-Oceania Others
Languages Contact

Mangalore, India

Bajpe

latitude: 12-55N, longitude: 074-53E, elevation: 102 m


METAR: out of date (39475 hours)
short-TAF: VOML 280300Z 2806/2815 25010KT 6000 SCT008 SCT012 BKN080 TEMPO 2809/2815 3000 SHRA/RA SCT005 SCT012 FEW025CB BKN080
long-TAF: VOML 280300Z 2806/2912 25010KT 6000 SCT008 SCT012 BKN080 TEMPO 2809/2818 3000 SHRA/RA SCT005 SCT012 FEW025CB BKN080 TEMPO 2821/2903 3000 RA/DZ SCT005 SCT012 BKN080 TEMPO 2909/2912 3000 SHRA/RA SCT005 SCT012 FEW025CB BKN080

Time: 09:42 (04:12 UTC)

Forecast

The report was made 1 hour and 21 minutes ago, at 02:51 UTC  
Forecast valid from 28 at 06 UTC to 28 at 15 UTC
Wind 10 kt from the West/Southwest
Visibility 6000 m
Scattered clouds at a height of 800 ft
Scattered clouds at a height of 1200 ft
Broken clouds at a height of 8000 ft
Temporary
from 28 at 09 UTC to 28 at 15 UTC
Visibility 3000 m
Scattered clouds at a height of 500 ft
Scattered clouds at a height of 1200 ft
Few clouds at a height of 2500 ft , Cumulonimbus.
Broken clouds at a height of 8000 ft

Forecast

The report was made 1 hour and 25 minutes ago, at 02:47 UTC  
Forecast valid from 28 at 06 UTC to 29 at 12 UTC
Wind 10 kt from the West/Southwest
Visibility 6000 m
Scattered clouds at a height of 800 ft
Scattered clouds at a height of 1200 ft
Broken clouds at a height of 8000 ft
Temporary
from 28 at 09 UTC to 28 at 18 UTC
Visibility 3000 m
Scattered clouds at a height of 500 ft
Scattered clouds at a height of 1200 ft
Few clouds at a height of 2500 ft , Cumulonimbus.
Broken clouds at a height of 8000 ft
Temporary
from 28 at 21 UTC to 29 at 03 UTC
Visibility 3000 m
Scattered clouds at a height of 500 ft
Scattered clouds at a height of 1200 ft
Broken clouds at a height of 8000 ft
Temporary
from 29 at 09 UTC to 29 at 12 UTC
Visibility 3000 m
Scattered clouds at a height of 500 ft
Scattered clouds at a height of 1200 ft
Few clouds at a height of 2500 ft , Cumulonimbus.
Broken clouds at a height of 8000 ft
The information on this site is subject to a disclaimer
Weather : Europe Africa North America South America Asia Australia-Oceania Others
Satellite images 15-day forecastsClimateMarine weather Cyclones Lightning AirportsFAQ Languages Contact Newsletter About